createdAt,value
2022-12-15T00:00:35.998Z,3.40
2022-12-15T00:06:00.742Z,2.97
2022-12-15T00:11:24.841Z,3.03
2022-12-15T00:22:12.214Z,2.33
2022-12-15T00:27:36.746Z,2.80
2022-12-15T00:33:02.623Z,1.87
2022-12-15T00:38:33.357Z,2.70
2022-12-15T00:43:41.005Z,3.07
2022-12-15T00:48:49.070Z,2.77
2022-12-15T00:54:17.836Z,2.97
2022-12-15T00:59:39.672Z,3.20
2022-12-15T01:05:04.279Z,3.20
2022-12-15T01:10:29.228Z,3.17
2022-12-15T01:15:58.902Z,3.17
2022-12-15T01:21:09.847Z,3.60
2022-12-15T01:26:16.821Z,4.00
2022-12-15T01:31:23.575Z,4.27
2022-12-15T01:36:30.412Z,4.30
2022-12-15T01:41:37.363Z,3.80
2022-12-15T01:46:44.448Z,3.40
2022-12-15T01:51:55.368Z,3.50
2022-12-15T01:57:14.100Z,3.67
2022-12-15T02:02:24.843Z,3.47
2022-12-15T02:07:31.643Z,3.50
2022-12-15T02:12:42.923Z,3.90
2022-12-15T02:18:02.897Z,4.03
2022-12-15T02:23:48.252Z,3.97
2022-12-15T02:29:47.600Z,4.13
2022-12-15T02:35:01.938Z,4.00
2022-12-15T02:40:11.257Z,4.30
2022-12-15T02:45:31.168Z,4.40
2022-12-15T02:51:22.659Z,4.40
2022-12-15T02:56:39.345Z,4.43
2022-12-15T03:01:58.825Z,5.03
2022-12-15T03:07:09.831Z,4.50
2022-12-15T03:12:16.575Z,3.90
2022-12-15T03:17:23.306Z,3.93
2022-12-15T03:22:30.013Z,4.10
2022-12-15T03:27:38.409Z,3.97
2022-12-15T03:32:45.117Z,3.80
2022-12-15T03:37:51.826Z,8.47
2022-12-15T03:42:59.055Z,4.20
2022-12-15T03:48:05.843Z,42.00
2022-12-15T03:53:12.847Z,6.77
2022-12-15T03:58:20.283Z,6.57
2022-12-15T04:03:27.152Z,4.60
2022-12-15T04:08:33.846Z,4.17
2022-12-15T04:13:40.653Z,3.70
2022-12-15T04:18:47.347Z,3.00
2022-12-15T04:24:11.637Z,3.47
2022-12-15T04:29:36.099Z,4.70
2022-12-15T04:35:00.867Z,3.90
2022-12-15T04:40:26.939Z,4.83
2022-12-15T04:45:51.726Z,3.90
2022-12-15T04:51:16.383Z,4.23
2022-12-15T04:56:40.771Z,4.00
2022-12-15T05:02:05.184Z,4.13
2022-12-15T05:07:29.854Z,5.77
2022-12-15T05:12:54.191Z,5.13
2022-12-15T05:18:18.310Z,5.20
2022-12-15T05:29:05.781Z,6.22
2022-12-15T05:34:12.525Z,8.90
2022-12-15T05:39:19.256Z,4.87
2022-12-15T05:44:27.495Z,7.83
2022-12-15T05:49:34.417Z,9.03
2022-12-15T05:54:41.141Z,10.33
2022-12-15T05:59:47.849Z,8.63
2022-12-15T06:04:54.732Z,10.97
2022-12-15T06:10:01.494Z,11.70
2022-12-15T06:15:09.425Z,10.63
2022-12-15T06:20:16.268Z,10.47
2022-12-15T06:25:22.941Z,9.00
2022-12-15T06:30:29.643Z,8.60
2022-12-15T06:35:38.927Z,5.70
2022-12-15T06:40:45.849Z,6.90
2022-12-15T06:45:53.178Z,4.40
2022-12-15T06:51:10.803Z,4.20
2022-12-15T06:56:33.077Z,2.70
2022-12-15T07:01:36.609Z,28.20
2022-12-15T07:06:43.603Z,3.33
2022-12-15T07:11:51.945Z,10.33
2022-12-15T07:16:59.262Z,31.37
2022-12-15T07:22:05.963Z,6.27
2022-12-15T07:27:12.964Z,1.80
2022-12-15T07:32:19.954Z,2.10
2022-12-15T07:37:26.648Z,1.90
2022-12-15T07:42:34.502Z,1.80
2022-12-15T07:47:41.219Z,48.43
2022-12-15T07:52:49.395Z,4.23
2022-12-15T07:57:56.064Z,2.10
2022-12-15T08:03:04.490Z,1.80
2022-12-15T08:08:15.312Z,3.27
2022-12-15T08:13:44.929Z,2.80
2022-12-15T08:18:28.436Z,2.60
2022-12-15T08:23:35.927Z,3.43
2022-12-15T08:28:43.254Z,4.03
2022-12-15T08:33:50.767Z,4.43
2022-12-15T08:39:00.961Z,3.40
2022-12-15T08:44:07.666Z,3.40
2022-12-15T08:49:21.206Z,2.77
2022-12-15T08:54:23.265Z,3.33
2022-12-15T08:59:30.031Z,3.77
2022-12-15T09:04:36.804Z,3.87
2022-12-15T09:09:43.550Z,4.20
2022-12-15T09:14:50.225Z,5.07
2022-12-15T09:19:56.902Z,4.37
2022-12-15T09:25:04.015Z,5.40
2022-12-15T09:30:11.657Z,5.30
2022-12-15T09:35:18.370Z,5.43
2022-12-15T09:40:26.199Z,4.43
2022-12-15T09:45:37.389Z,4.83
2022-12-15T09:50:48.085Z,4.90
2022-12-15T09:55:59.627Z,6.13
2022-12-15T10:01:55.929Z,6.83
2022-12-15T10:07:24.897Z,8.83
2022-12-15T10:12:35.014Z,8.23
2022-12-15T10:17:51.526Z,7.43
2022-12-15T10:23:02.725Z,8.20
2022-12-15T10:28:19.631Z,8.60
2022-12-15T10:33:36.342Z,8.50
2022-12-15T10:43:57.679Z,7.97
2022-12-15T10:49:14.610Z,7.50
2022-12-15T10:54:21.310Z,8.33
2022-12-15T10:59:39.359Z,7.53
2022-12-15T11:05:00.720Z,7.77
2022-12-15T11:10:20.562Z,8.83
2022-12-15T11:15:47.115Z,10.47
2022-12-15T11:20:59.909Z,10.43
2022-12-15T11:26:49.170Z,10.23
2022-12-15T11:32:03.107Z,11.93
2022-12-15T11:37:39.580Z,12.33
2022-12-15T11:42:56.480Z,11.83
2022-12-15T11:48:19.073Z,12.20
2022-12-15T11:53:53.953Z,11.10
2022-12-15T11:59:16.940Z,12.67
2022-12-15T12:04:34.039Z,14.20
2022-12-15T12:09:45.408Z,15.07
2022-12-15T12:15:26.327Z,13.90
2022-12-15T12:20:43.356Z,14.80
2022-12-15T12:26:06.360Z,15.13
2022-12-15T12:31:20.050Z,15.73
2022-12-15T12:36:26.489Z,15.65
2022-12-15T12:41:43.589Z,16.47
2022-12-15T12:46:53.752Z,16.00
2022-12-15T12:52:06.253Z,15.40
2022-12-15T12:57:23.153Z,15.10
2022-12-15T13:02:38.421Z,14.43
2022-12-15T13:07:48.186Z,13.47
2022-12-15T13:12:59.845Z,13.90
2022-12-15T13:18:22.653Z,13.40
2022-12-15T13:23:34.353Z,15.70
2022-12-15T13:28:47.193Z,15.33
2022-12-15T13:34:04.260Z,26.23
2022-12-15T13:39:33.349Z,26.30
2022-12-15T13:44:48.781Z,17.93
2022-12-15T13:50:17.210Z,17.77
2022-12-15T13:55:31.566Z,21.53
2022-12-15T14:00:40.590Z,25.90
2022-12-15T14:05:56.927Z,21.80
2022-12-15T14:11:22.349Z,18.47
2022-12-15T14:16:22.708Z,20.53
2022-12-15T14:21:30.746Z,18.03
2022-12-15T14:26:37.413Z,18.77
2022-12-15T14:31:50.777Z,21.33
2022-12-15T14:37:02.532Z,23.57
2022-12-15T14:42:16.341Z,66.03
2022-12-15T14:52:40.307Z,25.35
2022-12-15T14:57:48.734Z,22.50
2022-12-15T15:03:09.926Z,8.10
2022-12-15T15:08:34.411Z,23.00
2022-12-15T15:13:43.422Z,24.00
2022-12-15T15:18:56.400Z,22.73
2022-12-15T15:24:19.840Z,24.80
2022-12-15T15:29:41.590Z,24.27
2022-12-15T15:34:48.876Z,24.77
2022-12-15T15:39:58.560Z,24.80
2022-12-15T15:45:05.434Z,24.00
2022-12-15T15:50:18.909Z,24.73
2022-12-15T15:55:37.805Z,28.47
2022-12-15T16:00:40.417Z,25.73
2022-12-15T16:05:47.438Z,27.80
2022-12-15T16:10:54.754Z,26.10
2022-12-15T16:16:01.619Z,26.37
2022-12-15T16:21:11.977Z,25.37
2022-12-15T16:26:23.342Z,25.23
2022-12-15T16:31:41.621Z,26.70
2022-12-15T16:36:46.941Z,25.33
2022-12-15T16:41:56.228Z,26.70
2022-12-15T16:47:02.975Z,27.10
2022-12-15T16:52:21.703Z,28.37
2022-12-15T16:57:28.431Z,29.23
2022-12-15T17:02:37.689Z,27.47
2022-12-15T17:07:47.861Z,28.40
2022-12-15T17:12:58.386Z,26.83
2022-12-15T17:18:06.818Z,28.37
2022-12-15T17:23:20.928Z,28.00
2022-12-15T17:28:32.843Z,26.07
2022-12-15T17:33:39.620Z,26.53
2022-12-15T17:38:46.728Z,27.63
2022-12-15T17:44:09.804Z,26.77
2022-12-15T17:49:02.136Z,27.07
2022-12-15T17:54:12.715Z,27.60
2022-12-15T17:59:22.324Z,26.70
2022-12-15T18:04:29.098Z,26.40
2022-12-15T18:09:36.682Z,29.70
2022-12-15T18:14:43.596Z,27.97
2022-12-15T18:19:50.627Z,27.20
2022-12-15T18:24:57.838Z,26.63
2022-12-15T18:30:04.590Z,27.73
2022-12-15T18:35:22.788Z,32.67
2022-12-15T18:40:32.215Z,27.50
2022-12-15T18:45:38.974Z,46.73
2022-12-15T18:50:47.098Z,65.80
2022-12-15T18:55:54.042Z,26.60
2022-12-15T19:01:02.762Z,29.00
2022-12-15T19:06:37.215Z,28.60
2022-12-15T19:11:49.278Z,26.20
2022-12-15T19:17:13.872Z,26.60
2022-12-15T19:22:30.283Z,27.40
2022-12-15T19:27:37.047Z,25.17
2022-12-15T19:32:43.935Z,26.07
2022-12-15T19:37:51.093Z,26.63
2022-12-15T19:42:58.659Z,29.97
2022-12-15T19:48:07.624Z,26.80
2022-12-15T19:53:26.807Z,27.57
2022-12-15T19:58:36.436Z,27.47
2022-12-15T20:03:45.765Z,27.73
2022-12-15T20:08:57.000Z,25.90
2022-12-15T20:14:06.388Z,26.73
2022-12-15T20:19:13.538Z,27.80
2022-12-15T20:24:21.810Z,28.13
2022-12-15T20:29:36.972Z,26.33
2022-12-15T20:34:44.058Z,29.17
2022-12-15T20:39:56.993Z,29.13
2022-12-15T20:45:00.937Z,26.63
2022-12-15T20:50:19.649Z,28.73
2022-12-15T20:55:26.776Z,28.47
2022-12-15T21:00:33.710Z,29.53
2022-12-15T21:05:41.216Z,28.33
2022-12-15T21:10:49.687Z,30.00
2022-12-15T21:15:57.452Z,29.63
2022-12-15T21:21:06.328Z,29.03
2022-12-15T21:26:13.941Z,30.70
2022-12-15T21:31:21.259Z,27.90
2022-12-15T21:36:29.620Z,27.60
2022-12-15T21:41:37.419Z,29.87
2022-12-15T21:46:44.724Z,27.87
2022-12-15T21:51:58.954Z,27.73
2022-12-15T21:57:07.814Z,28.03
2022-12-15T22:02:27.086Z,28.67
2022-12-15T22:07:34.588Z,26.13
2022-12-15T22:12:43.839Z,26.33
2022-12-15T22:17:51.830Z,29.53
2022-12-15T22:22:58.939Z,29.10
2022-12-15T22:28:06.608Z,29.47
2022-12-15T22:33:23.007Z,27.93
2022-12-15T22:38:30.383Z,28.50
2022-12-15T22:43:41.388Z,28.60
2022-12-15T22:48:49.474Z,30.93
2022-12-15T22:53:57.450Z,29.93
2022-12-15T22:59:08.749Z,30.60
2022-12-15T23:04:15.964Z,30.73
2022-12-15T23:09:22.739Z,30.93
2022-12-15T23:14:47.667Z,29.53
2022-12-15T23:19:54.788Z,31.63
2022-12-15T23:25:01.619Z,34.77
2022-12-15T23:30:10.404Z,33.80
2022-12-15T23:35:18.048Z,35.97
2022-12-15T23:40:25.246Z,35.33
2022-12-15T23:45:32.197Z,34.87
2022-12-15T23:50:40.459Z,33.47
2022-12-15T23:55:47.901Z,34.97
